N316K TJIG-KOPF
Flight info
| Callsign | N316K |
|---|---|
| Flight time | N/A |
| Altitude | 40000 |
| Route | ACONY Y280 SAPPO Y399 ZQA OLAHS3 |
| Aircraft | CL60/M-SBDE1E2E3FGHIJ1J4J5J7M3RWXYZ/LB1V1D1 |
Departure
| Time | N/A |
|---|---|
| Airport | Fernando Luis Ribas Dominicci Airport (TJIG) |
Arrival
| Time | 2026-05-03 21:44 |
|---|---|
| Airport | Miami-Opa Locka Executive Airport (KOPF) |
| Time | Latitude | Longitude | Altitude | Speed | Heading |
|---|---|---|---|---|---|
| 2026-05-03 21:14 | 25.24462 | -78.03303 | 36956 ft | 361 kts | 286° |
| 2026-05-03 21:14 | 25.25416 | -78.05894 | 35724 ft | 378 kts | 286° |
| 2026-05-03 21:15 | 25.26416 | -78.08614 | 34328 ft | 391 kts | 287° |
| 2026-05-03 21:15 | 25.27452 | -78.11418 | 33528 ft | 391 kts | 287° |
| 2026-05-03 21:15 | 25.28478 | -78.14190 | 32903 ft | 387 kts | 287° |
| 2026-05-03 21:15 | 25.29490 | -78.16927 | 32382 ft | 383 kts | 287° |
| 2026-05-03 21:16 | 25.30458 | -78.19474 | 31892 ft | 380 kts | 288° |
| 2026-05-03 21:16 | 25.31565 | -78.22230 | 31363 ft | 376 kts | 288° |
| 2026-05-03 21:16 | 25.32629 | -78.24877 | 30866 ft | 372 kts | 288° |
| 2026-05-03 21:16 | 25.33668 | -78.27467 | 30377 ft | 368 kts | 288° |
| 2026-05-03 21:17 | 25.34702 | -78.30046 | 29888 ft | 364 kts | 288° |
| 2026-05-03 21:17 | 25.35388 | -78.31757 | 29566 ft | 361 kts | 288° |
| 2026-05-03 21:17 | 25.36723 | -78.35091 | 28935 ft | 357 kts | 288° |
| 2026-05-03 21:17 | 25.37727 | -78.37603 | 28463 ft | 353 kts | 288° |
| 2026-05-03 21:18 | 25.38719 | -78.40083 | 27997 ft | 350 kts | 288° |
| 2026-05-03 21:18 | 25.39701 | -78.42542 | 27531 ft | 347 kts | 288° |
| 2026-05-03 21:18 | 25.40671 | -78.44971 | 27073 ft | 343 kts | 288° |
| 2026-05-03 21:18 | 25.41618 | -78.47388 | 26616 ft | 340 kts | 288° |
| 2026-05-03 21:19 | 25.42547 | -78.49804 | 26162 ft | 337 kts | 288° |
| 2026-05-03 21:19 | 25.43448 | -78.52150 | 25717 ft | 333 kts | 288° |
| 2026-05-03 21:19 | 25.44359 | -78.54517 | 25277 ft | 331 kts | 288° |
| 2026-05-03 21:19 | 25.45268 | -78.56882 | 24833 ft | 329 kts | 288° |
| 2026-05-03 21:20 | 25.46165 | -78.59221 | 24398 ft | 328 kts | 288° |
| 2026-05-03 21:20 | 25.47052 | -78.61535 | 23969 ft | 326 kts | 288° |
| 2026-05-03 21:20 | 25.47937 | -78.63845 | 23535 ft | 324 kts | 288° |
| 2026-05-03 21:20 | 25.48803 | -78.66106 | 23115 ft | 322 kts | 288° |
| 2026-05-03 21:21 | 25.49684 | -78.68407 | 22684 ft | 319 kts | 288° |
| 2026-05-03 21:21 | 25.50537 | -78.70634 | 22269 ft | 317 kts | 288° |
| 2026-05-03 21:21 | 25.51407 | -78.72909 | 21842 ft | 315 kts | 288° |
| 2026-05-03 21:21 | 25.52259 | -78.75138 | 21425 ft | 314 kts | 288° |
| 2026-05-03 21:22 | 25.53110 | -78.77365 | 21005 ft | 313 kts | 288° |
| 2026-05-03 21:22 | 25.53953 | -78.79575 | 20592 ft | 311 kts | 288° |
| 2026-05-03 21:22 | 25.54797 | -78.81786 | 20178 ft | 310 kts | 289° |
| 2026-05-03 21:22 | 25.55628 | -78.83962 | 19766 ft | 308 kts | 289° |
| 2026-05-03 21:23 | 25.56454 | -78.86128 | 19365 ft | 306 kts | 288° |
| 2026-05-03 21:23 | 25.57274 | -78.88281 | 18958 ft | 305 kts | 289° |
| 2026-05-03 21:23 | 25.58093 | -78.90430 | 18560 ft | 303 kts | 289° |
| 2026-05-03 21:23 | 25.58909 | -78.92574 | 18158 ft | 302 kts | 289° |
| 2026-05-03 21:24 | 25.59722 | -78.94711 | 17759 ft | 300 kts | 289° |
| 2026-05-03 21:24 | 25.60531 | -78.96838 | 17361 ft | 298 kts | 289° |
| 2026-05-03 21:24 | 25.61327 | -78.98933 | 16971 ft | 296 kts | 289° |
| 2026-05-03 21:24 | 25.62130 | -79.01046 | 16575 ft | 295 kts | 289° |
| 2026-05-03 21:25 | 25.62926 | -79.03143 | 16185 ft | 295 kts | 289° |
| 2026-05-03 21:25 | 25.63707 | -79.05212 | 15798 ft | 294 kts | 289° |
| 2026-05-03 21:25 | 25.64495 | -79.07310 | 15404 ft | 293 kts | 289° |
| 2026-05-03 21:25 | 25.65269 | -79.09368 | 15018 ft | 292 kts | 289° |
| 2026-05-03 21:26 | 25.66049 | -79.11447 | 14629 ft | 292 kts | 289° |
| 2026-05-03 21:26 | 25.66829 | -79.13525 | 14246 ft | 292 kts | 289° |
| 2026-05-03 21:26 | 25.67609 | -79.15604 | 13855 ft | 291 kts | 289° |
| 2026-05-03 21:26 | 25.68382 | -79.17667 | 13473 ft | 290 kts | 289° |
| 2026-05-03 21:27 | 25.69147 | -79.19707 | 13092 ft | 290 kts | 289° |
| 2026-05-03 21:27 | 25.69920 | -79.21771 | 12708 ft | 289 kts | 289° |
| 2026-05-03 21:27 | 25.70690 | -79.23827 | 12322 ft | 287 kts | 289° |
| 2026-05-03 21:27 | 25.71455 | -79.25871 | 11945 ft | 285 kts | 289° |
| 2026-05-03 21:28 | 25.72209 | -79.27888 | 11569 ft | 284 kts | 289° |
| 2026-05-03 21:28 | 25.72958 | -79.29892 | 11194 ft | 282 kts | 289° |
| 2026-05-03 21:28 | 25.73693 | -79.31889 | 10823 ft | 280 kts | 289° |
| 2026-05-03 21:28 | 25.74430 | -79.33897 | 10446 ft | 279 kts | 290° |
| 2026-05-03 21:29 | 25.75155 | -79.35873 | 10071 ft | 278 kts | 289° |
| 2026-05-03 21:29 | 25.75883 | -79.37857 | 9660 ft | 276 kts | 290° |
| 2026-05-03 21:29 | 25.76605 | -79.39824 | 9308 ft | 274 kts | 290° |
| 2026-05-03 21:29 | 25.77320 | -79.41777 | 8944 ft | 273 kts | 290° |
| 2026-05-03 21:30 | 25.78030 | -79.43716 | 8585 ft | 273 kts | 290° |
| 2026-05-03 21:30 | 25.78747 | -79.45675 | 8223 ft | 272 kts | 290° |
| 2026-05-03 21:30 | 25.79455 | -79.47608 | 7863 ft | 272 kts | 290° |
| 2026-05-03 21:30 | 25.80166 | -79.49552 | 7501 ft | 271 kts | 290° |
| 2026-05-03 21:31 | 25.80875 | -79.51492 | 7142 ft | 269 kts | 290° |
| 2026-05-03 21:31 | 25.81581 | -79.53424 | 6781 ft | 268 kts | 290° |
| 2026-05-03 21:31 | 25.82278 | -79.55334 | 6427 ft | 267 kts | 290° |
| 2026-05-03 21:31 | 25.82970 | -79.57228 | 6077 ft | 266 kts | 290° |
| 2026-05-03 21:32 | 25.83667 | -79.59139 | 5722 ft | 265 kts | 291° |
| 2026-05-03 21:32 | 25.84359 | -79.61019 | 5375 ft | 264 kts | 291° |
| 2026-05-03 21:32 | 25.85056 | -79.62890 | 5049 ft | 262 kts | 292° |
| 2026-05-03 21:32 | 25.85812 | -79.64745 | 4946 ft | 263 kts | 294° |
| 2026-05-03 21:33 | 25.86597 | -79.66578 | 4946 ft | 264 kts | 294° |
| 2026-05-03 21:33 | 25.87387 | -79.68426 | 4948 ft | 265 kts | 294° |
| 2026-05-03 21:33 | 25.88193 | -79.70315 | 4946 ft | 265 kts | 294° |
| 2026-05-03 21:33 | 25.88975 | -79.72147 | 4948 ft | 266 kts | 294° |
| 2026-05-03 21:34 | 25.89768 | -79.74004 | 4945 ft | 265 kts | 294° |
| 2026-05-03 21:34 | 25.90562 | -79.75868 | 4947 ft | 265 kts | 294° |
| 2026-05-03 21:34 | 25.91356 | -79.77729 | 4947 ft | 266 kts | 294° |
| 2026-05-03 21:34 | 25.92154 | -79.79602 | 4942 ft | 265 kts | 294° |
| 2026-05-03 21:35 | 25.92942 | -79.81454 | 4942 ft | 265 kts | 294° |
| 2026-05-03 21:35 | 25.93726 | -79.83297 | 4944 ft | 265 kts | 294° |
| 2026-05-03 21:35 | 25.94513 | -79.85145 | 4939 ft | 265 kts | 294° |
| 2026-05-03 21:35 | 25.95306 | -79.87011 | 4940 ft | 265 kts | 294° |
| 2026-05-03 21:36 | 25.96097 | -79.88872 | 4952 ft | 264 kts | 294° |
| 2026-05-03 21:36 | 25.96882 | -79.90721 | 4933 ft | 264 kts | 294° |
| 2026-05-03 21:36 | 25.97669 | -79.92573 | 4958 ft | 264 kts | 294° |
| 2026-05-03 21:36 | 25.98453 | -79.94443 | 4953 ft | 264 kts | 291° |
| 2026-05-03 21:37 | 25.98821 | -79.96410 | 4951 ft | 263 kts | 272° |
| 2026-05-03 21:37 | 25.98865 | -79.98469 | 4950 ft | 264 kts | 271° |
| 2026-05-03 21:37 | 25.98914 | -80.00530 | 4956 ft | 265 kts | 271° |
| 2026-05-03 21:37 | 25.98963 | -80.02576 | 4954 ft | 264 kts | 271° |
| 2026-05-03 21:38 | 25.99012 | -80.04633 | 4951 ft | 265 kts | 271° |
| 2026-05-03 21:38 | 25.99060 | -80.06683 | 4946 ft | 265 kts | 271° |
| 2026-05-03 21:38 | 25.99108 | -80.08732 | 4636 ft | 269 kts | 271° |
| 2026-05-03 21:38 | 25.99157 | -80.10822 | 4211 ft | 268 kts | 271° |
| 2026-05-03 21:39 | 25.99123 | -80.12862 | 3789 ft | 265 kts | 264° |
| 2026-05-03 21:39 | 25.98889 | -80.14914 | 3363 ft | 263 kts | 263° |
| 2026-05-03 21:39 | 25.98635 | -80.16909 | 2946 ft | 262 kts | 263° |
| 2026-05-03 21:39 | 25.98374 | -80.18905 | 2523 ft | 262 kts | 263° |
| 2026-05-03 21:40 | 25.98107 | -80.20918 | 2092 ft | 257 kts | 263° |
| 2026-05-03 21:40 | 25.97847 | -80.22805 | 1977 ft | 237 kts | 263° |
| 2026-05-03 21:40 | 25.97594 | -80.24568 | 1989 ft | 227 kts | 262° |
| 2026-05-03 21:40 | 25.97349 | -80.26289 | 1965 ft | 226 kts | 263° |
| 2026-05-03 21:41 | 25.97104 | -80.28011 | 1944 ft | 226 kts | 262° |
| 2026-05-03 21:41 | 25.96868 | -80.29678 | 1917 ft | 205 kts | 263° |
| 2026-05-03 21:41 | 25.96655 | -80.31197 | 1957 ft | 195 kts | 262° |
| 2026-05-03 21:41 | 25.96101 | -80.32536 | 1935 ft | 193 kts | 225° |
| 2026-05-03 21:42 | 25.94902 | -80.33140 | 1807 ft | 189 kts | 186° |
| 2026-05-03 21:42 | 25.93641 | -80.33192 | 1486 ft | 171 kts | 179° |
| 2026-05-03 21:42 | 25.92547 | -80.33199 | 1481 ft | 143 kts | 179° |
| 2026-05-03 21:42 | 25.91570 | -80.33070 | 1400 ft | 143 kts | 151° |
| 2026-05-03 21:43 | 25.91023 | -80.32249 | 1132 ft | 131 kts | 95° |
| 2026-05-03 21:43 | 25.91127 | -80.31284 | 812 ft | 127 kts | 78° |
| 2026-05-03 21:43 | 25.91194 | -80.30307 | 498 ft | 126 kts | 86° |
| 2026-05-03 21:43 | 25.91239 | -80.29330 | 174 ft | 125 kts | 83° |
| 2026-05-03 21:44 | 25.91288 | -80.28380 | 9 ft | 117 kts | 86° |
| 2026-05-03 21:44 | 25.91326 | -80.27625 | 8 ft | 63 kts | 85° |
| 2026-05-03 21:44 | 25.91333 | -80.27348 | 8 ft | 16 kts | 104° |
| 2026-05-03 21:44 | 25.91254 | -80.27335 | 8 ft | 14 kts | 209° |
| 2026-05-03 21:45 | 25.91212 | -80.27361 | 8 ft | 1 kts | 203° |
| 2026-05-03 21:45 | 25.91204 | -80.27258 | 9 ft | 25 kts | 82° |
| 2026-05-03 21:45 | 25.91215 | -80.27068 | 11 ft | 18 kts | 87° |
| 2026-05-03 21:45 | 25.91156 | -80.27022 | 11 ft | 12 kts | 180° |
| 2026-05-03 21:46 | 25.91072 | -80.27021 | 11 ft | 9 kts | 165° |
| 2026-05-03 21:46 | 25.91056 | -80.26963 | 11 ft | 10 kts | 87° |
| 2026-05-03 21:46 | 25.91063 | -80.26872 | 11 ft | 11 kts | 63° |
| 2026-05-03 21:46 | 25.91092 | -80.26835 | 11 ft | 6 kts | 33° |
| 2026-05-03 21:47 | 25.91119 | -80.26839 | 11 ft | 4 kts | 228° |
| 2026-05-03 21:47 | 25.91111 | -80.26842 | 11 ft | 0 kts | 178° |